createdAt,value
2019-01-18T00:01:35.625Z,0
2019-01-18T00:03:27.847Z,0
2019-01-18T00:06:28.334Z,0
2019-01-18T00:09:28.505Z,0
2019-01-18T00:12:29.170Z,0
2019-01-18T00:15:29.714Z,0
2019-01-18T00:18:27.991Z,0
2019-01-18T00:21:28.217Z,0
2019-01-18T00:24:28.489Z,0
2019-01-18T00:27:28.751Z,0
2019-01-18T00:30:28.114Z,0
2019-01-18T00:33:28.285Z,0
2019-01-18T00:36:28.841Z,0
2019-01-18T00:39:29.756Z,0
2019-01-18T00:42:28.055Z,0
2019-01-18T00:45:28.440Z,0
2019-01-18T00:48:28.788Z,0
2019-01-18T00:51:28.137Z,0
2019-01-18T00:54:28.384Z,0
2019-01-18T00:57:28.650Z,0
2019-01-18T01:00:29.928Z,0
2019-01-18T01:03:28.361Z,0
2019-01-18T01:06:28.572Z,0
2019-01-18T01:09:27.871Z,0
2019-01-18T01:12:28.258Z,0
2019-01-18T01:15:28.760Z,0
2019-01-18T01:18:28.171Z,0
2019-01-18T01:21:28.537Z,0
2019-01-18T01:24:29.280Z,0
2019-01-18T01:27:28.596Z,0
2019-01-18T01:30:29.091Z,0
2019-01-18T01:33:28.399Z,0
2019-01-18T01:36:28.881Z,0
2019-01-18T01:39:28.228Z,0
2019-01-18T01:42:28.703Z,0
2019-01-18T01:45:27.975Z,0
2019-01-18T01:48:28.408Z,0
2019-01-18T01:51:28.931Z,0
2019-01-18T01:54:28.340Z,0
2019-01-18T01:57:28.550Z,0
2019-01-18T02:00:30.000Z,0
2019-01-18T02:03:28.718Z,0
2019-01-18T02:06:28.042Z,0
2019-01-18T02:09:29.591Z,0
2019-01-18T02:12:28.964Z,0
2019-01-18T02:15:29.314Z,0
2019-01-18T02:18:28.773Z,0
2019-01-18T02:21:28.166Z,0
2019-01-18T02:24:28.559Z,0
2019-01-18T02:27:28.778Z,0
2019-01-18T02:30:30.354Z,0
2019-01-18T02:33:28.715Z,0
2019-01-18T02:36:28.088Z,0
2019-01-18T02:39:28.348Z,0
2019-01-18T02:42:29.151Z,0
2019-01-18T02:45:28.450Z,0
2019-01-18T02:48:28.921Z,0
2019-01-18T02:51:28.139Z,0
2019-01-18T02:54:28.439Z,0
2019-01-18T02:57:29.122Z,0
2019-01-18T03:00:28.463Z,0
2019-01-18T03:03:28.764Z,0
2019-01-18T03:06:28.690Z,0
2019-01-18T03:09:28.084Z,0
2019-01-18T03:12:28.357Z,0
2019-01-18T03:15:28.737Z,0
2019-01-18T03:18:28.180Z,0
2019-01-18T03:21:28.518Z,0
2019-01-18T03:24:28.987Z,0
2019-01-18T03:27:28.322Z,0
2019-01-18T03:30:33.443Z,0
2019-01-18T03:33:28.806Z,0
2019-01-18T03:36:28.281Z,0
2019-01-18T03:39:28.776Z,0
2019-01-18T03:42:28.629Z,0
2019-01-18T03:45:27.917Z,0
2019-01-18T03:48:28.363Z,0
2019-01-18T03:51:28.811Z,0
2019-01-18T03:54:28.289Z,0
2019-01-18T03:57:28.808Z,0
2019-01-18T04:00:30.374Z,0
2019-01-18T04:03:28.712Z,0
2019-01-18T04:06:28.195Z,0
2019-01-18T04:09:28.820Z,0
2019-01-18T04:12:28.232Z,0
2019-01-18T04:15:28.631Z,0
2019-01-18T04:18:28.094Z,0
2019-01-18T04:21:28.764Z,0
2019-01-18T04:24:28.127Z,0
2019-01-18T04:27:28.595Z,0
2019-01-18T04:30:33.678Z,0
2019-01-18T04:33:28.433Z,0
2019-01-18T04:36:28.788Z,0
2019-01-18T04:39:28.335Z,0
2019-01-18T04:42:28.842Z,0
2019-01-18T04:45:28.561Z,0
2019-01-18T04:48:27.952Z,0
2019-01-18T04:51:28.572Z,0
2019-01-18T04:54:27.880Z,0
2019-01-18T04:57:28.232Z,0
2019-01-18T05:00:30.850Z,0
2019-01-18T05:03:28.518Z,0
2019-01-18T05:06:29.266Z,0
2019-01-18T05:09:28.555Z,0
2019-01-18T05:12:28.214Z,0
2019-01-18T05:15:30.954Z,0
2019-01-18T05:18:28.450Z,0
2019-01-18T05:21:28.800Z,0
2019-01-18T05:24:28.496Z,0
2019-01-18T05:27:28.156Z,0
2019-01-18T05:30:30.572Z,0
2019-01-18T05:33:28.265Z,0
2019-01-18T05:36:29.160Z,0
2019-01-18T05:39:28.652Z,0
2019-01-18T05:42:30.350Z,0
2019-01-18T05:45:29.294Z,0
2019-01-18T05:48:28.603Z,0
2019-01-18T05:51:28.961Z,0
2019-01-18T05:54:28.446Z,0
2019-01-18T05:57:29.199Z,0
2019-01-18T06:01:33.368Z,0
2019-01-18T06:03:28.843Z,0
2019-01-18T06:06:28.313Z,0
2019-01-18T06:09:28.959Z,0
2019-01-18T06:12:28.293Z,0
2019-01-18T06:15:28.699Z,0
2019-01-18T06:18:28.247Z,0
2019-01-18T06:21:28.806Z,0
2019-01-18T06:24:27.980Z,0
2019-01-18T06:27:28.531Z,0
2019-01-18T06:30:29.192Z,0
2019-01-18T06:33:29.929Z,0
2019-01-18T06:36:28.475Z,0
2019-01-18T06:39:28.888Z,0
2019-01-18T06:42:33.553Z,0
2019-01-18T06:45:29.035Z,0
2019-01-18T06:48:30.318Z,0
2019-01-18T06:51:28.874Z,1
2019-01-18T06:54:28.380Z,0
2019-01-18T06:57:28.764Z,1
2019-01-18T07:00:31.161Z,2
2019-01-18T07:03:28.664Z,0
2019-01-18T07:06:28.139Z,3
2019-01-18T07:09:28.593Z,0
2019-01-18T07:12:27.869Z,0
2019-01-18T07:15:28.228Z,6
2019-01-18T07:18:28.629Z,0
2019-01-18T07:21:28.096Z,0
2019-01-18T07:24:28.350Z,8
2019-01-18T07:27:28.742Z,0
2019-01-18T07:30:31.115Z,10
2019-01-18T07:33:28.307Z,0
2019-01-18T07:36:28.646Z,11
2019-01-18T07:39:28.119Z,0
2019-01-18T07:42:28.397Z,12
2019-01-18T07:45:30.054Z,14
2019-01-18T07:48:28.510Z,18
2019-01-18T07:51:29.352Z,0
2019-01-18T07:54:28.727Z,7
2019-01-18T07:57:28.647Z,19
2019-01-18T08:00:30.206Z,11
2019-01-18T08:03:28.621Z,31
2019-01-18T08:06:27.937Z,35
2019-01-18T08:09:28.549Z,12
2019-01-18T08:12:27.894Z,41
2019-01-18T08:15:29.973Z,33
2019-01-18T08:18:28.403Z,54
2019-01-18T08:21:28.821Z,48
2019-01-18T08:24:28.130Z,97
2019-01-18T08:27:28.561Z,123
2019-01-18T08:30:30.645Z,41
2019-01-18T08:33:28.138Z,159
2019-01-18T08:36:28.595Z,186
2019-01-18T08:39:29.384Z,100
2019-01-18T08:42:28.830Z,114
2019-01-18T08:45:31.730Z,387
2019-01-18T08:48:28.152Z,402
2019-01-18T08:51:28.547Z,317
2019-01-18T08:54:28.963Z,212
2019-01-18T08:57:28.297Z,139
2019-01-18T09:00:29.441Z,228
2019-01-18T09:06:48.097Z,218
2019-01-18T09:09:29.053Z,384
2019-01-18T09:12:28.631Z,267
2019-01-18T09:15:33.705Z,0
2019-01-18T09:18:38.469Z,238
2019-01-18T09:21:29.211Z,328
2019-01-18T09:24:28.668Z,319
2019-01-18T09:27:28.866Z,306
2019-01-18T09:30:31.078Z,180
2019-01-18T09:33:34.064Z,206
2019-01-18T09:36:28.646Z,286
2019-01-18T09:39:33.486Z,213
2019-01-18T09:42:28.173Z,991
2019-01-18T09:45:29.658Z,302
2019-01-18T09:48:29.789Z,675
2019-01-18T09:51:29.400Z,520
2019-01-18T09:54:34.098Z,578
2019-01-18T09:57:28.505Z,348
2019-01-18T10:00:36.989Z,184
2019-01-18T10:03:29.667Z,238
2019-01-18T10:06:31.720Z,148
2019-01-18T10:09:28.264Z,170
2019-01-18T10:12:30.522Z,154
2019-01-18T10:15:40.476Z,56
2019-01-18T10:18:28.830Z,107
2019-01-18T10:21:28.472Z,108
2019-01-18T10:24:35.678Z,333
2019-01-18T10:27:34.450Z,407
2019-01-18T10:30:45.731Z,263
2019-01-18T10:33:28.798Z,124
2019-01-18T10:36:28.528Z,141
2019-01-18T10:39:28.169Z,114
2019-01-18T10:42:30.448Z,131
2019-01-18T10:45:34.558Z,135
2019-01-18T10:48:29.939Z,105
2019-01-18T10:51:28.533Z,119
2019-01-18T10:54:29.187Z,121
2019-01-18T10:57:33.553Z,99
2019-01-18T11:00:32.660Z,86
2019-01-18T11:03:28.414Z,93
2019-01-18T11:06:28.892Z,123
2019-01-18T11:09:58.852Z,135
2019-01-18T11:12:29.425Z,111
2019-01-18T11:15:30.394Z,126
2019-01-18T11:18:28.882Z,111
2019-01-18T11:21:28.927Z,138
2019-01-18T11:24:28.312Z,119
2019-01-18T11:27:28.718Z,152
2019-01-18T11:30:28.321Z,134
2019-01-18T11:33:28.740Z,160
2019-01-18T11:36:28.188Z,134
2019-01-18T11:39:28.637Z,121
2019-01-18T11:42:28.021Z,118
2019-01-18T11:45:28.564Z,130
2019-01-18T11:48:29.315Z,107
2019-01-18T11:51:28.880Z,107
2019-01-18T11:54:28.273Z,106
2019-01-18T11:57:28.709Z,121
2019-01-18T12:00:29.050Z,95
2019-01-18T12:03:29.048Z,119
2019-01-18T12:06:28.402Z,97
2019-01-18T12:09:28.794Z,115
2019-01-18T12:12:28.143Z,115
2019-01-18T12:15:29.305Z,87
2019-01-18T12:18:28.880Z,94
2019-01-18T12:21:28.629Z,113
2019-01-18T12:24:28.626Z,89
2019-01-18T12:27:28.550Z,91
2019-01-18T12:30:31.519Z,110
2019-01-18T12:33:28.232Z,111
2019-01-18T12:36:29.123Z,106
2019-01-18T12:39:28.492Z,83
2019-01-18T12:42:29.014Z,84
2019-01-18T12:45:29.230Z,85
2019-01-18T12:48:28.802Z,106
2019-01-18T12:51:28.187Z,106
2019-01-18T12:54:28.550Z,100
2019-01-18T12:57:29.145Z,93
2019-01-18T13:00:29.268Z,91
2019-01-18T13:03:29.060Z,70
2019-01-18T13:06:28.436Z,88
2019-01-18T13:09:28.917Z,87
2019-01-18T13:12:28.812Z,84
2019-01-18T13:15:32.676Z,65
2019-01-18T13:18:28.195Z,81
2019-01-18T13:21:28.835Z,58
2019-01-18T13:24:28.438Z,69
2019-01-18T13:27:28.960Z,64
2019-01-18T13:30:28.562Z,57
2019-01-18T13:33:28.961Z,79
2019-01-18T13:36:28.393Z,61
2019-01-18T13:39:29.188Z,54
2019-01-18T13:42:29.104Z,61
2019-01-18T13:45:28.689Z,57
2019-01-18T13:48:28.205Z,73
2019-01-18T13:51:28.653Z,61
2019-01-18T13:54:28.049Z,44
2019-01-18T13:57:28.529Z,41
2019-01-18T14:00:28.252Z,41
2019-01-18T14:03:28.762Z,60
2019-01-18T14:06:28.271Z,37
2019-01-18T14:09:28.696Z,38
2019-01-18T14:12:29.521Z,36
2019-01-18T14:15:28.595Z,54
2019-01-18T14:18:28.144Z,29
2019-01-18T14:21:28.786Z,26
2019-01-18T14:24:28.327Z,26
2019-01-18T14:27:28.736Z,26
2019-01-18T14:30:35.793Z,24
2019-01-18T14:33:28.710Z,41
2019-01-18T14:36:28.267Z,39
2019-01-18T14:39:28.523Z,40
2019-01-18T14:42:27.937Z,39
2019-01-18T14:45:31.372Z,39
2019-01-18T14:48:28.847Z,38
2019-01-18T14:51:28.859Z,38
2019-01-18T14:54:28.139Z,36
2019-01-18T14:57:28.566Z,13
2019-01-18T15:00:30.227Z,10
2019-01-18T15:03:28.727Z,5
2019-01-18T15:06:28.200Z,22
2019-01-18T15:09:28.693Z,19
2019-01-18T15:12:28.238Z,19
2019-01-18T15:15:28.657Z,0
2019-01-18T15:18:28.279Z,0
2019-01-18T15:21:28.679Z,0
2019-01-18T15:24:28.083Z,13
2019-01-18T15:27:28.625Z,0
2019-01-18T15:30:29.953Z,13
2019-01-18T15:33:28.324Z,0
2019-01-18T15:36:28.705Z,0
2019-01-18T15:39:28.105Z,6
2019-01-18T15:42:28.491Z,0
2019-01-18T15:45:29.030Z,7
2019-01-18T15:48:28.689Z,6
2019-01-18T15:51:28.066Z,6
2019-01-18T15:54:28.443Z,0
2019-01-18T15:57:28.738Z,4
2019-01-18T16:00:30.908Z,0
2019-01-18T16:03:29.424Z,3
2019-01-18T16:06:29.045Z,1
2019-01-18T16:09:28.492Z,1
2019-01-18T16:12:28.920Z,1
2019-01-18T16:15:32.493Z,0
2019-01-18T16:18:28.997Z,0
2019-01-18T16:21:28.365Z,0
2019-01-18T16:24:28.901Z,0
2019-01-18T16:27:29.043Z,0
2019-01-18T16:30:28.660Z,0
2019-01-18T16:33:28.622Z,0
2019-01-18T16:36:28.177Z,0
2019-01-18T16:39:29.049Z,0
2019-01-18T16:42:28.445Z,0
2019-01-18T16:45:29.066Z,0
2019-01-18T16:48:28.561Z,0
2019-01-18T16:51:28.820Z,0
2019-01-18T16:54:28.238Z,0
2019-01-18T16:57:28.514Z,0
2019-01-18T17:00:32.032Z,0
2019-01-18T17:03:30.547Z,0
2019-01-18T17:06:28.325Z,0
2019-01-18T17:09:28.954Z,0
2019-01-18T17:12:28.408Z,0
2019-01-18T17:15:28.937Z,0
2019-01-18T17:18:29.214Z,0
2019-01-18T17:21:28.659Z,0
2019-01-18T17:24:28.039Z,0
2019-01-18T17:27:28.479Z,0
2019-01-18T17:30:28.871Z,0
2019-01-18T17:33:28.330Z,0
2019-01-18T17:36:44.683Z,0
2019-01-18T17:40:21.816Z,0
2019-01-18T17:42:38.265Z,0
2019-01-18T17:45:54.023Z,0
2019-01-18T17:48:38.223Z,0
2019-01-18T17:52:49.641Z,0
2019-01-18T17:54:46.067Z,0
2019-01-18T18:00:16.970Z,0
2019-01-18T18:04:06.449Z,0
2019-01-18T18:04:58.061Z,0
2019-01-18T18:06:40.041Z,0
2019-01-18T18:09:53.098Z,0
2019-01-18T18:14:38.069Z,0
2019-01-18T18:15:39.959Z,0
2019-01-18T18:18:55.646Z,0
2019-01-18T18:22:05.734Z,0
2019-01-18T18:27:38.974Z,0
2019-01-18T18:30:53.340Z,0
2019-01-18T18:35:48.051Z,0
2019-01-18T18:36:59.006Z,0
2019-01-18T18:41:10.352Z,0
2019-01-18T18:41:55.740Z,0
2019-01-18T18:44:40.285Z,0
2019-01-18T18:45:38.940Z,0
2019-01-18T18:50:56.494Z,0
2019-01-18T18:52:33.549Z,0
2019-01-18T18:56:42.363Z,0
2019-01-18T19:00:07.986Z,0
2019-01-18T19:00:40.412Z,0
2019-01-18T19:03:57.465Z,0
2019-01-18T19:07:21.728Z,0
2019-01-18T19:09:46.096Z,0
2019-01-18T19:16:18.550Z,0
2019-01-18T19:16:19.883Z,0
2019-01-18T19:20:52.339Z,0
2019-01-18T19:21:53.424Z,0
2019-01-18T19:26:56.800Z,0
2019-01-18T19:28:30.366Z,0
2019-01-18T19:33:18.700Z,0
2019-01-18T19:33:46.000Z,0
2019-01-18T19:39:22.084Z,0
2019-01-18T19:41:46.711Z,0
2019-01-18T19:45:46.938Z,0
2019-01-18T19:48:20.533Z,0
2019-01-18T19:48:40.856Z,0
2019-01-18T19:53:47.401Z,0
2019-01-18T19:54:35.039Z,0
2019-01-18T19:57:45.029Z,0
2019-01-18T20:02:51.370Z,0
2019-01-18T20:03:50.418Z,0
2019-01-18T20:08:44.493Z,0
2019-01-18T20:11:47.782Z,0
2019-01-18T20:13:01.310Z,0
2019-01-18T20:17:03.512Z,0
2019-01-18T20:20:50.601Z,0
2019-01-18T20:21:40.604Z,0
2019-01-18T20:26:38.675Z,0
2019-01-18T20:27:47.879Z,0
2019-01-18T20:32:37.209Z,0
2019-01-18T20:33:54.850Z,0
2019-01-18T20:38:40.633Z,0
2019-01-18T20:40:44.716Z,0
2019-01-18T20:42:41.477Z,0
2019-01-18T20:45:38.455Z,0
2019-01-18T20:48:38.602Z,0
2019-01-18T20:53:41.797Z,0
2019-01-18T20:54:55.277Z,0
2019-01-18T20:57:43.421Z,0
2019-01-18T21:00:44.000Z,0
2019-01-18T21:04:02.698Z,0
2019-01-18T21:06:41.564Z,0
2019-01-18T21:11:00.723Z,0
2019-01-18T21:12:43.174Z,0
2019-01-18T21:15:37.094Z,0
2019-01-18T21:18:38.355Z,0
2019-01-18T21:23:02.150Z,0
2019-01-18T21:24:42.077Z,0
2019-01-18T21:27:45.942Z,0
2019-01-18T21:30:40.458Z,0
2019-01-18T21:33:55.590Z,0
2019-01-18T21:38:43.236Z,0
2019-01-18T21:39:42.405Z,0
2019-01-18T21:42:38.283Z,0
2019-01-18T21:45:42.868Z,0
2019-01-18T21:48:41.086Z,0
2019-01-18T21:53:41.038Z,0
2019-01-18T21:55:17.993Z,0
2019-01-18T21:57:38.740Z,0
2019-01-18T22:02:38.763Z,0
2019-01-18T22:03:38.560Z,0
2019-01-18T22:07:28.895Z,0
2019-01-18T22:09:34.153Z,0
2019-01-18T22:13:40.693Z,0
2019-01-18T22:17:39.866Z,0
2019-01-18T22:18:54.405Z,0
2019-01-18T22:21:46.492Z,0
2019-01-18T22:24:49.677Z,0
2019-01-18T22:27:42.502Z,0
2019-01-18T22:30:43.624Z,0
2019-01-18T22:33:36.558Z,0
2019-01-18T22:36:45.792Z,0
2019-01-18T22:39:45.662Z,0
2019-01-18T22:44:10.181Z,0
2019-01-18T22:45:38.391Z,0
2019-01-18T22:48:36.385Z,0
2019-01-18T22:51:47.177Z,0
2019-01-18T22:57:15.434Z,0
2019-01-18T22:57:42.340Z,0
2019-01-18T23:01:46.725Z,0
2019-01-18T23:03:37.840Z,0
2019-01-18T23:08:41.591Z,0
2019-01-18T23:11:15.358Z,0
2019-01-18T23:12:54.435Z,0
2019-01-18T23:15:46.809Z,0
2019-01-18T23:18:36.470Z,0
2019-01-18T23:22:13.491Z,0
2019-01-18T23:25:11.891Z,0
2019-01-18T23:27:44.988Z,0
2019-01-18T23:30:38.120Z,0
2019-01-18T23:34:36.022Z,0
2019-01-18T23:37:08.679Z,0
2019-01-18T23:39:41.595Z,0
2019-01-18T23:42:40.234Z,0
2019-01-18T23:45:45.352Z,0
2019-01-18T23:48:58.400Z,0
2019-01-18T23:51:57.213Z,0
2019-01-18T23:56:33.900Z,0
2019-01-18T23:57:52.932Z,0
